Time;durP1;ratioP1;P1;durP2;ratioP2;P2;SDS_P1;SDS_P2;PMS_P1;PMS_P2;Temp;Humidity;BMP_temperature;BMP_pressure;BME280_temperature;BME280_humidity;BME280_pressure;Samples;Min_cycle;Max_cycle;Signal;HPM_P1;HPM_P2
2020/12/12 00:01:19;;;;;;;49.97;27.83;;;;;;;1.00;77.97;97904.26;125781;1100;104443;-71
2020/12/12 00:03:47;;;;;;;51.80;26.33;;;;;;;0.93;78.09;97894.20;125890;1098;105064;-73
2020/12/12 00:06:21;;;;;;;55.97;29.30;;;;;;;0.87;78.13;97898.83;125810;1093;104417;-72
2020/12/12 00:08:49;;;;;;;56.37;31.23;;;;;;;0.84;77.84;97901.59;125983;1098;104413;-73
2020/12/12 00:11:20;;;;;;;50.67;28.73;;;;;;;0.84;78.19;97898.12;125885;1098;104506;-71
2020/12/12 00:13:47;;;;;;;58.27;31.63;;;;;;;0.82;77.98;97897.34;125766;1101;104475;-72
2020/12/12 00:16:16;;;;;;;57.20;29.17;;;;;;;0.81;78.02;97912.23;125831;1100;104634;-71
2020/12/12 00:18:45;;;;;;;54.50;28.73;;;;;;;0.81;78.19;97908.78;125890;1100;104471;-72
2020/12/12 00:21:21;;;;;;;53.03;28.60;;;;;;;0.79;78.22;97900.98;125931;1098;104480;-72
2020/12/12 00:23:50;;;;;;;63.77;30.70;;;;;;;0.77;77.85;97900.22;125970;1098;104478;-72
2020/12/12 00:26:21;;;;;;;56.93;30.60;;;;;;;0.78;78.30;97894.05;126460;1098;104522;-72
2020/12/12 00:28:48;;;;;;;57.60;31.77;;;;;;;0.81;78.01;97893.07;125963;1098;104420;-72
2020/12/12 00:31:19;;;;;;;58.40;32.30;;;;;;;0.84;78.52;97895.50;125945;1098;104499;-72
2020/12/12 00:33:47;;;;;;;62.07;33.73;;;;;;;0.84;78.23;97893.75;126126;1098;104478;-73
2020/12/12 00:36:16;;;;;;;59.47;31.53;;;;;;;0.86;78.30;97896.27;125782;1099;104475;-73
2020/12/12 00:38:43;;;;;;;63.57;31.60;;;;;;;0.88;78.11;97886.56;125905;1100;104532;-74
2020/12/12 00:41:10;;;;;;;63.35;34.15;;;;;;;0.91;78.65;97894.27;125954;1098;104535;-74
2020/12/12 00:43:38;;;;;;;59.43;34.60;;;;;;;0.99;78.49;97888.64;125940;1098;104487;-72
2020/12/12 00:46:04;;;;;;;61.33;33.77;;;;;;;1.01;78.79;97887.63;126066;1098;104502;-72
2020/12/12 00:48:32;;;;;;;51.85;28.83;;;;;;;1.07;78.44;97894.30;125957;1098;105006;-72
2020/12/12 00:50:59;;;;;;;53.47;30.03;;;;;;;1.10;78.21;97888.90;126073;1098;104449;-72
2020/12/12 00:53:26;;;;;;;53.63;27.60;;;;;;;1.13;78.61;97887.91;128067;1099;102569;-73
2020/12/12 00:55:55;;;;;;;49.43;25.73;;;;;;;1.15;78.25;97883.44;125819;1100;104506;-72
2020/12/12 00:58:22;;;;;;;50.60;27.63;;;;;;;1.16;78.78;97882.51;126012;1098;104519;-72
2020/12/12 01:00:50;;;;;;;45.20;24.13;;;;;;;1.22;78.28;97881.33;126075;1098;104526;-73
2020/12/12 01:03:17;;;;;;;44.27;24.93;;;;;;;1.24;78.30;97882.09;125988;1098;104469;-73
2020/12/12 01:05:45;;;;;;;42.77;22.40;;;;;;;1.25;78.41;97876.75;126063;1098;104481;-73
2020/12/12 01:08:13;;;;;;;38.70;19.47;;;;;;;1.25;77.95;97881.99;126030;1098;104413;-73
2020/12/12 01:10:40;;;;;;;36.93;19.37;;;;;;;1.25;78.57;97887.23;125789;1098;104462;-74
2020/12/12 01:13:07;;;;;;;37.73;19.53;;;;;;;1.25;78.41;97884.61;125952;1098;105100;-73
2020/12/12 01:15:35;;;;;;;36.50;19.07;;;;;;;1.29;79.00;97882.69;125996;1098;104650;-73
2020/12/12 01:18:02;;;;;;;34.93;17.00;;;;;;;1.29;78.47;97878.28;125944;1098;104579;-72
2020/12/12 01:20:30;;;;;;;30.77;14.90;;;;;;;1.30;78.71;97876.52;125983;1098;104531;-72
2020/12/12 01:22:57;;;;;;;36.83;17.83;;;;;;;1.30;78.89;97874.73;125996;1098;105115;-72
2020/12/12 01:25:24;;;;;;;38.63;19.40;;;;;;;1.35;78.83;97871.88;125951;1098;104487;-72
2020/12/12 01:27:51;;;;;;;37.90;19.40;;;;;;;1.39;78.25;97873.41;125951;1098;104897;-71
2020/12/12 01:30:18;;;;;;;36.33;18.63;;;;;;;1.45;78.62;97874.84;125996;1093;104528;-73
2020/12/12 01:32:45;;;;;;;32.70;17.25;;;;;;;1.49;79.02;97869.33;125958;1098;104500;-72
2020/12/12 01:35:14;;;;;;;34.63;17.93;;;;;;;1.57;79.46;97875.94;125964;1098;104522;-71
2020/12/12 01:37:45;;;;;;;35.70;18.35;;;;;;;1.62;78.81;97874.77;125795;1100;104500;-72
2020/12/12 01:40:13;;;;;;;34.07;16.73;;;;;;;1.69;78.92;97879.64;125982;1098;104420;-72
2020/12/12 01:42:40;;;;;;;32.90;16.40;;;;;;;1.71;78.72;97880.41;125995;1098;104426;-71
2020/12/12 01:45:08;;;;;;;31.20;15.63;;;;;;;1.68;78.17;97884.06;126028;1099;104580;-71
2020/12/12 01:47:38;;;;;;;32.90;13.83;;;;;;;1.66;78.68;97888.54;126003;1098;104541;-72
2020/12/12 01:50:07;;;;;;;35.43;15.10;;;;;;;1.62;78.71;97880.02;126411;1100;104429;-73
2020/12/12 01:52:36;;;;;;;32.40;15.27;;;;;;;1.61;78.98;97880.08;126137;1098;104519;-72
2020/12/12 01:55:03;;;;;;;31.43;15.90;;;;;;;1.58;78.78;97877.62;126131;1098;104477;-72
2020/12/12 01:57:30;;;;;;;31.60;15.23;;;;;;;1.59;78.80;97872.31;126025;1100;104487;-71
2020/12/12 01:59:57;;;;;;;30.87;14.30;;;;;;;1.59;78.37;97879.32;126001;1098;104548;-72
2020/12/12 02:02:24;;;;;;;30.97;13.25;;;;;;;1.56;78.59;97872.48;126086;1098;104542;-72
2020/12/12 02:04:56;;;;;;;33.37;16.40;;;;;;;1.57;78.96;97874.17;125873;1093;104452;-71
2020/12/12 02:07:25;;;;;;;33.57;16.27;;;;;;;1.61;79.02;97873.08;125917;1093;104435;-73
2020/12/12 02:09:53;;;;;;;31.03;15.03;;;;;;;1.66;79.33;97867.56;127360;1098;104551;-71
2020/12/12 02:12:21;;;;;;;32.57;15.33;;;;;;;1.69;79.37;97867.40;125914;1098;104475;-72
2020/12/12 02:14:48;;;;;;;33.17;15.90;;;;;;;1.72;78.84;97872.47;125965;1098;104504;-71
2020/12/12 02:17:15;;;;;;;29.23;14.47;;;;;;;1.76;79.57;97873.14;125949;1098;104478;-70
2020/12/12 02:19:42;;;;;;;27.97;12.83;;;;;;;1.75;79.36;97877.55;125991;1098;104475;-71
2020/12/12 02:22:09;;;;;;;30.33;14.97;;;;;;;1.75;79.52;97872.30;126139;1100;104522;-71
2020/12/12 02:24:36;;;;;;;30.90;14.47;;;;;;;1.80;78.72;97872.03;125807;1094;104971;-71
2020/12/12 02:27:05;;;;;;;29.93;13.40;;;;;;;1.79;78.85;97878.21;126064;1098;104577;-72
2020/12/12 02:29:49;;;;;;;28.98;12.05;;;;;;;1.79;79.04;97880.83;125926;1098;104443;-71
2020/12/12 02:32:16;;;;;;;26.00;12.33;;;;;;;1.74;79.06;97883.72;126524;1098;104462;-72
2020/12/12 02:34:44;;;;;;;29.23;13.37;;;;;;;1.77;78.98;97880.07;126056;1099;104497;-71
2020/12/12 02:37:11;;;;;;;31.67;13.20;;;;;;;1.78;79.11;97881.77;126021;1098;104414;-71
2020/12/12 02:39:38;;;;;;;33.17;14.00;;;;;;;1.79;79.38;97883.45;127342;1098;104420;-71
2020/12/12 02:42:05;;;;;;;24.70;10.63;;;;;;;1.80;79.26;97889.56;126094;1098;104558;-71
2020/12/12 02:44:32;;;;;;;25.63;11.87;;;;;;;1.73;78.45;97886.41;126057;1098;104528;-72
2020/12/12 02:46:59;;;;;;;29.85;12.65;;;;;;;1.76;78.96;97886.25;125896;1101;104649;-72
2020/12/12 02:49:27;;;;;;;27.47;12.70;;;;;;;1.75;79.39;97887.17;126121;1098;104423;-72
2020/12/12 02:51:54;;;;;;;28.00;13.00;;;;;;;1.74;78.82;97886.34;126344;1098;104852;-71
2020/12/12 02:54:21;;;;;;;27.22;11.38;;;;;;;1.72;78.88;97882.96;125873;1093;104545;-74
2020/12/12 02:56:48;;;;;;;27.73;11.13;;;;;;;1.67;78.89;97882.37;126059;1099;104461;-74
2020/12/12 02:59:15;;;;;;;22.48;9.55;;;;;;;1.60;78.80;97881.87;125984;1098;104427;-71
2020/12/12 03:01:42;;;;;;;23.80;10.27;;;;;;;1.57;78.76;97878.55;126018;1100;104548;-71
2020/12/12 03:04:10;;;;;;;25.33;10.80;;;;;;;1.53;78.92;97888.38;126115;1098;104426;-71
2020/12/12 03:06:43;;;;;;;28.17;10.90;;;;;;;1.49;78.33;97881.61;126171;1098;104420;-72
2020/12/12 03:09:12;;;;;;;28.10;12.50;;;;;;;1.45;79.06;97880.08;126123;1098;104516;-72
2020/12/12 03:11:39;;;;;;;26.23;11.63;;;;;;;1.44;79.27;97881.01;126016;1098;104631;-72
2020/12/12 03:14:06;;;;;;;26.52;11.28;;;;;;;1.42;79.01;97883.73;125877;1098;104593;-72
2020/12/12 03:16:32;;;;;;;20.87;8.70;;;;;;;1.42;78.93;97894.20;125855;1098;104929;-72
2020/12/12 03:19:00;;;;;;;23.92;10.25;;;;;;;1.37;78.93;97890.13;125895;1098;104464;-72
2020/12/12 03:21:26;;;;;;;24.20;9.43;;;;;;;1.33;78.89;97892.08;126019;1098;104490;-73
2020/12/12 03:23:53;;;;;;;28.37;10.83;;;;;;;1.29;78.45;97896.63;126163;1098;104561;-72
2020/12/12 03:26:20;;;;;;;22.97;9.83;;;;;;;1.29;79.08;97890.55;125939;1098;104955;-72
2020/12/12 03:28:47;;;;;;;25.40;9.53;;;;;;;1.27;79.36;97893.23;125804;1098;104548;-72
2020/12/12 03:31:14;;;;;;;27.57;11.23;;;;;;;1.25;78.85;97886.40;125851;1098;104548;-72
2020/12/12 03:33:41;;;;;;;29.33;10.13;;;;;;;1.26;79.20;97890.72;126361;1098;104422;-72
2020/12/12 03:36:09;;;;;;;28.12;11.22;;;;;;;1.22;79.52;97887.42;125719;1101;104419;-73
2020/12/12 03:38:35;;;;;;;25.50;10.43;;;;;;;1.22;78.93;97891.80;125895;1100;104416;-72
2020/12/12 03:41:02;;;;;;;25.73;10.00;;;;;;;1.21;79.31;97880.49;126038;1098;104442;-72
2020/12/12 03:43:29;;;;;;;25.47;10.03;;;;;;;1.22;79.41;97884.80;125888;1098;104443;-72
2020/12/12 03:45:56;;;;;;;23.87;9.98;;;;;;;1.26;79.40;97888.09;125971;1098;104532;-72
2020/12/12 03:48:23;;;;;;;27.90;11.40;;;;;;;1.25;79.03;97876.75;126118;1098;104436;-71
2020/12/12 03:50:50;;;;;;;23.30;9.85;;;;;;;1.26;79.56;97874.99;126002;1098;104442;-72
2020/12/12 03:53:17;;;;;;;27.67;11.77;;;;;;;1.26;79.33;97878.45;125924;1098;104452;-72
2020/12/12 03:55:44;;;;;;;26.80;11.47;;;;;;;1.29;79.70;97874.83;125986;1098;104414;-73
2020/12/12 03:58:10;;;;;;;22.10;10.10;;;;;;;1.28;78.83;97866.11;125899;1098;104478;-74
2020/12/12 04:00:37;;;;;;;24.87;9.37;;;;;;;1.26;79.22;97869.75;125902;1098;104528;-73
2020/12/12 04:03:04;;;;;;;24.17;9.10;;;;;;;1.26;79.08;97873.20;125984;1099;104503;-72
2020/12/12 04:05:31;;;;;;;24.77;10.87;;;;;;;1.25;79.42;97862.83;125957;1098;104420;-72
2020/12/12 04:08:00;;;;;;;24.87;10.13;;;;;;;1.27;79.51;97867.03;125954;1100;104414;-72
2020/12/12 04:10:26;;;;;;;24.47;10.27;;;;;;;1.28;79.36;97873.97;126756;1098;104446;-72
2020/12/12 04:12:53;;;;;;;30.67;10.27;;;;;;;1.30;79.79;97871.28;125836;1100;104507;-72
2020/12/12 04:15:20;;;;;;;29.10;10.72;;;;;;;1.31;79.50;97867.73;126182;1100;104547;-71
2020/12/12 04:17:47;;;;;;;27.00;11.67;;;;;;;1.31;79.19;97863.33;125933;1098;104574;-72
2020/12/12 04:20:14;;;;;;;25.37;11.80;;;;;;;1.35;79.93;97864.02;125947;1098;104926;-72
2020/12/12 04:22:41;;;;;;;26.73;12.23;;;;;;;1.38;79.70;97865.62;125735;1101;104484;-71
2020/12/12 04:25:08;;;;;;;28.42;12.30;;;;;;;1.44;79.41;97863.50;125790;1099;104525;-72
2020/12/12 04:27:35;;;;;;;30.30;12.67;;;;;;;1.47;80.15;97858.09;125930;1098;104525;-72
2020/12/12 04:30:03;;;;;;;29.27;13.10;;;;;;;1.51;79.80;97858.78;125765;1101;104500;-72
2020/12/12 04:32:30;;;;;;;26.67;12.50;;;;;;;1.53;79.77;97856.06;125959;1098;104522;-73
2020/12/12 04:34:57;;;;;;;25.47;10.93;;;;;;;1.53;79.65;97864.78;125965;1098;104506;-73
2020/12/12 04:37:24;;;;;;;22.63;9.43;;;;;;;1.51;80.04;97858.78;125853;1098;104500;-72
2020/12/12 04:39:51;;;;;;;28.90;11.17;;;;;;;1.48;79.64;97861.57;126130;1098;104560;-72
2020/12/12 04:42:20;;;;;;;27.30;10.17;;;;;;;1.46;79.22;97863.42;125982;1099;104479;-72
2020/12/12 04:44:47;;;;;;;29.67;11.13;;;;;;;1.45;79.26;97861.73;125996;1098;104485;-72
2020/12/12 04:47:14;;;;;;;26.40;10.98;;;;;;;1.42;79.55;97862.77;126083;1098;104438;-73
2020/12/12 04:49:42;;;;;;;23.27;9.57;;;;;;;1.41;78.95;97866.31;126168;1098;104465;-72
2020/12/12 04:52:14;;;;;;;26.60;12.00;;;;;;;1.38;79.26;97863.86;126035;1098;104939;-72
2020/12/12 04:54:45;;;;;;;24.90;10.43;;;;;;;1.37;79.19;97867.41;126022;1093;104483;-71
2020/12/12 04:57:12;;;;;;;28.03;10.73;;;;;;;1.36;79.74;97870.09;125932;1098;104945;-72
2020/12/12 04:59:42;;;;;;;21.37;8.83;;;;;;;1.36;79.70;97875.33;125982;1098;104420;-72
2020/12/12 05:02:13;;;;;;;25.47;10.60;;;;;;;1.31;79.33;97872.97;126150;1098;104426;-72
2020/12/12 05:04:41;;;;;;;25.85;11.60;;;;;;;1.29;79.81;97873.05;126071;1098;104697;-72
2020/12/12 05:07:08;;;;;;;28.10;12.10;;;;;;;1.33;79.95;97865.88;126077;1098;104550;-73
2020/12/12 05:09:35;;;;;;;27.63;11.87;;;;;;;1.38;79.62;97865.62;126160;1098;104545;-73
2020/12/12 05:12:03;;;;;;;26.30;11.90;;;;;;;1.41;79.81;97865.45;125866;1101;104423;-71
2020/12/12 05:14:30;;;;;;;26.60;12.03;;;;;;;1.45;79.77;97872.22;126142;1098;105111;-70
2020/12/12 05:16:58;;;;;;;28.40;12.07;;;;;;;1.45;79.86;97872.22;126037;1100;104464;-71
2020/12/12 05:19:25;;;;;;;26.50;12.13;;;;;;;1.45;79.86;97873.05;126106;1098;104442;-73
2020/12/12 05:21:54;;;;;;;30.37;13.77;;;;;;;1.47;80.13;97870.36;126098;1098;104554;-73
2020/12/12 05:24:25;;;;;;;29.47;14.00;;;;;;;1.53;80.24;97874.41;126074;1098;104978;-72
2020/12/12 05:26:59;;;;;;;29.37;14.00;;;;;;;1.56;79.99;97875.11;126064;1093;104423;-74
2020/12/12 05:29:27;;;;;;;32.67;14.53;;;;;;;1.62;80.57;97873.91;125931;1098;104891;-73
2020/12/12 05:31:57;;;;;;;26.40;12.40;;;;;;;1.67;80.38;97876.27;126340;1100;104522;-72
2020/12/12 05:34:25;;;;;;;27.03;12.63;;;;;;;1.70;79.87;97873.47;125922;1098;104525;-72
2020/12/12 05:36:54;;;;;;;26.60;12.23;;;;;;;1.73;80.13;97873.30;126069;1098;104421;-72
2020/12/12 05:39:21;;;;;;;23.40;9.73;;;;;;;1.76;80.28;97875.76;126130;1098;104522;-73
2020/12/12 05:41:49;;;;;;;27.17;11.77;;;;;;;1.72;80.16;97874.23;126110;1098;104481;-76
2020/12/12 05:44:18;;;;;;;25.53;11.43;;;;;;;1.70;79.96;97866.47;125861;1100;104558;-72
2020/12/12 05:46:46;;;;;;;25.93;11.60;;;;;;;1.69;79.87;97872.64;126984;1098;102148;-73
2020/12/12 05:49:13;;;;;;;24.90;11.37;;;;;;;1.68;80.12;97872.71;126202;1098;104520;-73
2020/12/12 05:51:41;;;;;;;25.10;11.47;;;;;;;1.66;79.73;97877.19;126211;1098;104423;-72
2020/12/12 05:54:08;;;;;;;27.23;12.13;;;;;;;1.68;80.12;97877.95;125826;1100;104660;-74
2020/12/12 05:56:35;;;;;;;26.77;12.60;;;;;;;1.72;80.40;97875.09;125755;1100;104423;-74
2020/12/12 05:59:02;;;;;;;24.97;11.37;;;;;;;1.76;80.26;97879.23;125733;1100;104435;-75
2020/12/12 06:01:30;;;;;;;26.25;12.55;;;;;;;1.80;80.19;97879.91;125845;1098;104503;-75
2020/12/12 06:04:07;;;;;;;26.93;12.27;;;;;;;1.83;80.63;97877.11;125989;1098;104522;-75
2020/12/12 06:06:47;;;;;;;26.13;11.43;;;;;;;1.87;80.04;97883.02;125957;1098;104602;-76
2020/12/12 06:09:16;;;;;;;26.67;11.07;;;;;;;1.89;80.12;97881.16;126003;1098;104474;-73
2020/12/12 06:11:46;;;;;;;23.57;10.60;;;;;;;1.88;79.63;97888.19;126053;1098;104419;-74
2020/12/12 06:14:14;;;;;;;23.90;10.83;;;;;;;1.92;79.92;97884.47;125953;1098;104424;-76
2020/12/12 06:16:42;;;;;;;25.60;11.37;;;;;;;1.92;80.70;97889.71;126096;1098;104419;-74
2020/12/12 06:19:16;;;;;;;24.20;10.27;;;;;;;1.92;79.88;97884.47;126027;1100;104420;-74
2020/12/12 06:21:48;;;;;;;25.00;12.27;;;;;;;1.93;80.31;97885.30;125883;1099;104483;-73
2020/12/12 06:24:19;;;;;;;19.13;8.03;;;;;;;1.93;80.11;97885.30;126002;1098;104266;-73
2020/12/12 06:27:07;;;;;;;22.93;10.30;;;;;;;1.92;80.00;97889.71;126129;1098;104481;-74
2020/12/12 06:29:42;;;;;;;22.73;10.23;;;;;;;1.92;80.25;97886.23;126987;1098;104413;-73
2020/12/12 06:32:13;;;;;;;24.57;10.23;;;;;;;1.88;80.07;97882.95;126185;1098;104426;-74
2020/12/12 06:34:46;;;;;;;24.17;10.93;;;;;;;1.87;80.10;97885.64;126135;1098;104609;-74
2020/12/12 06:37:39;;;;;;;23.20;10.03;;;;;;;1.88;80.05;97887.33;126087;1098;104547;-73
2020/12/12 06:40:17;;;;;;;22.77;9.45;;;;;;;1.90;80.60;97886.33;126088;1098;104503;-75
2020/12/12 06:42:46;;;;;;;23.25;9.90;;;;;;;1.91;80.28;97888.02;126074;1098;104487;-74
2020/12/12 06:45:13;;;;;;;21.33;9.03;;;;;;;1.90;80.29;97888.09;126215;1098;104544;-76
2020/12/12 06:47:42;;;;;;;23.55;9.28;;;;;;;1.88;79.76;97888.19;126131;1098;104461;-76
2020/12/12 06:50:11;;;;;;;23.13;9.00;;;;;;;1.88;79.44;97889.95;126249;1098;104414;-76
2020/12/12 06:52:39;;;;;;;23.13;10.43;;;;;;;1.88;80.31;97889.95;126062;1098;104900;-75
2020/12/12 06:55:11;;;;;;;22.70;10.00;;;;;;;1.88;80.37;97889.95;126036;1098;104414;-74
2020/12/12 06:57:43;;;;;;;23.57;10.87;;;;;;;1.90;79.90;97893.33;125921;1100;104580;-75
2020/12/12 07:00:18;;;;;;;24.92;11.15;;;;;;;1.91;80.44;97889.78;126037;1098;104545;-74
2020/12/12 07:03:03;;;;;;;24.13;10.80;;;;;;;1.91;80.68;97893.27;126111;1098;104475;-75
2020/12/12 07:05:36;;;;;;;22.87;10.63;;;;;;;1.93;79.87;97898.41;125904;1098;104606;-75
2020/12/12 07:08:05;;;;;;;22.83;11.40;;;;;;;1.95;79.73;97900.96;125958;1100;104574;-75
2020/12/12 07:10:34;;;;;;;23.77;11.07;;;;;;;1.99;80.55;97891.99;125907;1100;104522;-74
2020/12/12 07:13:02;;;;;;;25.03;11.23;;;;;;;1.98;80.39;97906.87;126045;1098;104475;-73
2020/12/12 07:15:37;;;;;;;23.37;10.20;;;;;;;1.97;80.38;97905.17;126089;1100;104547;-74
2020/12/12 07:18:13;;;;;;;23.17;10.43;;;;;;;1.97;80.33;97899.09;125991;1099;104478;-74
2020/12/12 07:20:45;;;;;;;22.23;10.13;;;;;;;1.92;80.11;97909.83;126848;1098;104413;-75
2020/12/12 07:23:12;;;;;;;23.27;9.47;;;;;;;1.85;79.46;97908.48;126070;1098;104558;-76
2020/12/12 07:25:39;;;;;;;22.10;10.60;;;;;;;1.79;80.31;97909.67;126050;1098;104545;-75
2020/12/12 07:28:07;;;;;;;24.40;10.60;;;;;;;1.78;79.59;97911.47;126033;1098;104494;-77
2020/12/12 07:30:34;;;;;;;24.13;10.00;;;;;;;1.82;80.05;97920.00;125824;1100;104627;-77
2020/12/12 07:33:02;;;;;;;23.20;10.53;;;;;;;1.85;80.57;97911.09;125933;1098;104917;-74
2020/12/12 07:35:30;;;;;;;23.27;10.20;;;;;;;1.87;80.39;97920.59;126139;1099;104557;-74
2020/12/12 07:38:04;;;;;;;24.40;10.80;;;;;;;1.91;80.41;97908.14;126136;1099;104868;-76
2020/12/12 07:40:36;;;;;;;26.97;11.93;;;;;;;1.95;79.92;97914.08;125843;1101;104577;-74
2020/12/12 07:43:07;;;;;;;24.70;10.60;;;;;;;1.95;80.01;97911.45;125934;1100;104869;-74
2020/12/12 07:48:13;;;;;;;23.70;10.07;;;;;;;2.00;79.75;97914.66;125944;1093;104901;-73
2020/12/12 07:50:40;;;;;;;24.93;9.37;;;;;;;1.97;80.47;97910.42;126112;1098;104414;-72
2020/12/12 07:53:13;;;;;;;20.85;9.28;;;;;;;1.92;79.38;97902.83;125984;1098;104417;-73
2020/12/12 07:55:57;;;;;;;19.83;7.87;;;;;;;1.91;80.20;97914.25;125904;1100;104548;-74
2020/12/12 07:58:30;;;;;;;20.67;8.97;;;;;;;1.78;80.17;97914.09;126072;1098;104560;-75
2020/12/12 08:01:00;;;;;;;20.60;8.43;;;;;;;1.72;79.84;97922.28;125914;1100;104417;-72
2020/12/12 08:03:28;;;;;;;21.80;9.75;;;;;;;1.70;80.28;97918.91;125843;1093;104571;-73
2020/12/12 08:06:26;;;;;;;35.70;19.63;;;;;;;1.77;80.27;97922.88;126016;1093;104552;-74
2020/12/12 08:08:56;;;;;;;32.43;14.10;;;;;;;1.91;80.35;97923.88;126000;1093;104440;-76
2020/12/12 08:11:29;;;;;;;25.07;10.27;;;;;;;1.97;80.78;97920.91;125936;1093;104437;-77
2020/12/12 08:14:03;;;;;;;26.35;11.15;;;;;;;2.01;80.32;97929.47;126011;1093;104519;-75
2020/12/12 08:16:41;;;;;;;23.27;10.53;;;;;;;2.05;80.56;97926.58;126076;1093;104484;-76
2020/12/12 08:19:09;;;;;;;24.10;11.03;;;;;;;2.08;79.86;97930.80;126053;1093;104552;-77
2020/12/12 08:21:36;;;;;;;24.47;11.57;;;;;;;2.06;80.36;97927.41;125988;1093;104449;-75
2020/12/12 08:24:06;;;;;;;24.20;11.83;;;;;;;2.04;80.02;97924.89;125957;1093;104423;-77
2020/12/12 08:26:35;;;;;;;24.87;12.03;;;;;;;2.07;80.00;97921.23;126089;1098;104576;-76
2020/12/12 08:29:03;;;;;;;22.63;10.07;;;;;;;2.07;80.04;97921.23;126061;1093;104422;-78
2020/12/12 08:31:39;;;;;;;23.30;10.30;;;;;;;2.06;80.73;97924.78;125992;1093;104563;-74
2020/12/12 08:34:08;;;;;;;24.43;11.63;;;;;;;2.11;79.92;97916.67;125868;1093;104510;-74
2020/12/12 08:36:37;;;;;;;24.53;12.57;;;;;;;2.14;79.74;97919.95;125674;1093;104585;-79
2020/12/12 08:39:07;;;;;;;31.03;15.33;;;;;;;2.16;79.90;97925.97;125957;1093;104554;-77
2020/12/12 08:41:38;;;;;;;30.33;15.30;;;;;;;2.16;80.18;97920.72;126037;1093;104548;-77
2020/12/12 08:44:08;;;;;;;28.70;13.73;;;;;;;2.19;79.81;97919.72;126021;1093;104478;-78
2020/12/12 08:46:36;;;;;;;26.93;12.17;;;;;;;2.21;79.66;97920.48;125841;1093;104478;-77
2020/12/12 08:49:14;;;;;;;26.20;11.63;;;;;;;2.22;80.47;97923.00;125978;1093;104440;-78
2020/12/12 08:51:41;;;;;;;23.90;10.57;;;;;;;2.16;79.44;97923.34;125709;1093;104554;-77
2020/12/12 08:54:12;;;;;;;23.00;11.22;;;;;;;2.11;80.18;97919.30;125979;1093;104523;-78
2020/12/12 08:56:39;;;;;;;22.17;10.30;;;;;;;2.07;79.76;97915.98;126011;1093;104436;-79
2020/12/12 08:59:20;;;;;;;25.97;12.23;;;;;;;2.08;79.92;97920.30;125933;1093;104523;-78
2020/12/12 09:01:48;;;;;;;23.70;11.40;;;;;;;2.07;80.46;97924.72;125953;1093;104866;-77
2020/12/12 09:04:21;;;;;;;24.82;14.07;;;;;;;2.11;80.14;97914.05;126000;1093;104436;-77
2020/12/12 09:06:54;;;;;;;36.77;18.40;;;;;;;2.14;79.87;97908.63;125920;1093;104544;-77
2020/12/12 09:09:28;;;;;;;30.12;15.83;;;;;;;2.17;80.50;97908.46;126043;1093;104446;-77
2020/12/12 09:12:08;;;;;;;23.43;11.50;;;;;;;2.18;80.06;97904.91;125989;1098;104475;-77
2020/12/12 09:14:39;;;;;;;25.50;13.47;;;;;;;2.20;80.34;97909.12;125827;1093;104458;-76
2020/12/12 09:17:09;;;;;;;26.50;13.10;;;;;;;2.22;80.06;97904.63;125948;1098;104656;-78
2020/12/12 09:19:38;;;;;;;24.47;12.23;;;;;;;2.25;80.58;97897.52;125979;1098;104458;-77
2020/12/12 09:22:11;;;;;;;24.40;11.73;;;;;;;2.30;79.84;97898.10;125875;1093;104507;-77
2020/12/12 09:24:41;;;;;;;24.77;11.95;;;;;;;2.32;80.04;97904.94;125849;1093;104583;-78
2020/12/12 09:27:12;;;;;;;23.33;11.83;;;;;;;2.37;79.81;97909.94;126072;1093;104500;-79
2020/12/12 09:29:40;;;;;;;22.33;10.97;;;;;;;2.38;80.41;97909.01;125951;1100;104586;-79
2020/12/12 09:32:07;;;;;;;24.67;11.87;;;;;;;2.42;79.76;97901.79;125969;1098;104419;-80
2020/12/12 09:34:37;;;;;;;23.50;11.20;;;;;;;2.46;80.30;97896.26;126098;1094;104423;-80
2020/12/12 09:37:06;;;;;;;23.80;11.33;;;;;;;2.48;80.40;97899.64;125957;1093;104465;-81
2020/12/12 09:39:33;;;;;;;23.83;11.73;;;;;;;2.49;79.73;97895.25;126052;1098;104519;-80
2020/12/12 09:42:01;;;;;;;23.97;11.43;;;;;;;2.48;80.50;97891.77;125849;1093;104522;-77
2020/12/12 09:44:30;;;;;;;24.27;11.33;;;;;;;2.51;79.99;97896.01;126106;1098;104420;-76
2020/12/12 09:46:57;;;;;;;24.77;11.43;;;;;;;2.51;80.16;97891.59;125999;1098;104413;-76
2020/12/12 09:49:24;;;;;;;26.10;12.03;;;;;;;2.51;80.36;97896.84;125974;1098;104420;-77
2020/12/12 09:51:51;;;;;;;24.37;11.47;;;;;;;2.52;80.68;97900.33;126028;1100;104416;-76
2020/12/12 09:54:18;;;;;;;26.00;12.88;;;;;;;2.52;79.72;97895.08;126097;1099;104474;-71
2020/12/12 09:56:49;;;;;;;24.17;11.87;;;;;;;2.56;80.21;97893.10;125948;1093;104589;-77
2020/12/12 09:59:17;;;;;;;22.33;10.40;;;;;;;2.57;80.03;97887.78;126039;1093;104452;-73
2020/12/12 10:01:47;;;;;;;22.67;11.77;;;;;;;2.56;79.92;97886.09;125844;1093;104614;-71
2020/12/12 10:04:17;;;;;;;22.80;10.90;;;;;;;2.58;79.41;97889.47;126025;1093;104481;-74
2020/12/12 10:06:44;;;;;;;23.77;11.63;;;;;;;2.55;80.03;97889.64;126090;1093;104446;-74
2020/12/12 10:09:12;;;;;;;23.27;11.08;;;;;;;2.54;80.42;97887.95;125898;1093;104504;-75
2020/12/12 10:11:39;;;;;;;24.03;11.93;;;;;;;2.55;79.75;97892.27;125918;1100;104475;-78
2020/12/12 10:14:07;;;;;;;23.80;11.50;;;;;;;2.57;80.09;97897.42;126100;1093;104417;-77
2020/12/12 10:16:35;;;;;;;26.00;12.03;;;;;;;2.59;80.19;97895.55;125914;1093;104484;-76
2020/12/12 10:19:03;;;;;;;24.03;11.47;;;;;;;2.57;79.79;97893.03;125958;1093;104575;-75
2020/12/12 10:21:30;;;;;;;24.87;12.20;;;;;;;2.50;80.03;97886.45;125942;1098;104439;-75
2020/12/12 10:23:57;;;;;;;23.43;11.23;;;;;;;2.47;80.39;97899.74;125886;1099;105147;-73
2020/12/12 10:26:25;;;;;;;23.73;10.90;;;;;;;2.43;79.60;97892.98;126051;1093;104496;-80
2020/12/12 10:28:52;;;;;;;23.10;11.47;;;;;;;2.39;79.99;97900.20;125831;1093;104468;-75
2020/12/12 10:31:18;;;;;;;26.67;12.13;;;;;;;2.40;80.09;97886.14;125585;1093;104547;-73
2020/12/12 10:33:45;;;;;;;25.57;12.30;;;;;;;2.41;80.37;97893.08;125903;1093;104583;-75
2020/12/12 10:36:23;;;;;;;24.73;12.20;;;;;;;2.38;80.22;97882.77;125796;1093;104653;-74
2020/12/12 10:38:52;;;;;;;26.90;13.73;;;;;;;2.39;80.41;97889.70;125983;1093;104445;-74
2020/12/12 10:41:20;;;;;;;25.80;12.33;;;;;;;2.42;79.84;97886.91;125694;1093;104619;-74
2020/12/12 10:43:49;;;;;;;24.83;11.60;;;;;;;2.45;79.62;97891.11;125872;1100;104420;-76
2020/12/12 10:46:16;;;;;;;24.93;11.83;;;;;;;2.44;79.94;97887.66;125967;1098;104618;-75
2020/12/12 10:48:45;;;;;;;25.90;12.15;;;;;;;2.46;79.75;97884.93;126099;1098;104519;-74
2020/12/12 10:51:16;;;;;;;23.73;12.10;;;;;;;2.41;80.09;97879.96;125950;1098;104506;-76
2020/12/12 10:53:45;;;;;;;23.67;11.93;;;;;;;2.41;79.63;97882.59;125960;1093;104589;-75
2020/12/12 10:56:13;;;;;;;27.47;12.73;;;;;;;2.42;79.84;97881.66;126218;1094;104414;-77
2020/12/12 10:58:40;;;;;;;24.87;12.20;;;;;;;2.44;80.25;97887.66;126011;1099;104667;-76
2020/12/12 11:01:08;;;;;;;24.83;11.97;;;;;;;2.45;79.91;97885.86;125889;1100;104439;-76
2020/12/12 11:03:35;;;;;;;25.87;12.73;;;;;;;2.45;80.26;97884.07;126013;1100;104416;-73
2020/12/12 11:06:02;;;;;;;26.50;13.67;;;;;;;2.49;80.61;97885.58;126074;1100;104554;-76
2020/12/12 11:08:30;;;;;;;21.37;9.37;;;;;;;2.51;79.91;97886.34;125896;1100;104446;-76
2020/12/12 11:10:57;;;;;;;25.50;11.43;;;;;;;2.47;79.28;97889.25;126138;1098;104480;-73
2020/12/12 11:13:24;;;;;;;24.37;11.90;;;;;;;2.44;80.07;97890.28;126206;1099;104527;-74
2020/12/12 11:15:53;;;;;;;23.53;11.87;;;;;;;2.42;79.65;97892.16;125968;1100;104532;-76
2020/12/12 11:18:24;;;;;;;27.13;11.77;;;;;;;2.40;79.50;97890.53;125982;1093;104600;-73
2020/12/12 11:20:51;;;;;;;36.07;18.13;;;;;;;2.39;80.26;97887.08;126144;1098;104436;-75